createdAt,value
2023-04-04T00:02:19.130Z,100009.28
2023-04-04T00:04:59.474Z,100011.66
2023-04-04T00:07:39.320Z,100010.81
2023-04-04T00:10:17.516Z,100006.63
2023-04-04T00:12:58.775Z,100009.03
2023-04-04T00:15:37.994Z,100008.63
2023-04-04T00:18:13.263Z,100011.84
2023-04-04T00:20:59.376Z,100016.44
2023-04-04T00:23:37.598Z,100017.31
2023-04-04T00:26:18.440Z,100014.78
2023-04-04T00:28:59.542Z,100006.97
2023-04-04T00:31:40.415Z,100014.50
2023-04-04T00:34:19.720Z,100017.28
2023-04-04T00:37:00.300Z,100021.75
2023-04-04T00:39:38.645Z,100023.69
2023-04-04T00:42:22.611Z,100022.88
2023-04-04T00:45:03.323Z,100032.63
2023-04-04T00:47:50.037Z,100032.63
2023-04-04T00:50:34.046Z,100036.78
2023-04-04T00:53:12.438Z,100032.47
2023-04-04T00:55:57.002Z,100025.91
2023-04-04T00:58:37.192Z,100030.69
2023-04-04T01:01:18.065Z,100023.69
2023-04-04T01:03:58.611Z,100017.44
2023-04-04T01:06:39.252Z,100017.00
2023-04-04T01:09:17.230Z,100008.34
2023-04-04T01:12:04.664Z,99995.22
2023-04-04T01:14:46.166Z,99993.25
2023-04-04T01:17:26.116Z,99990.75
2023-04-04T01:20:22.461Z,99987.84
2023-04-04T01:23:04.080Z,99981.69
2023-04-04T01:25:39.951Z,99974.44
2023-04-04T01:28:30.552Z,99971.78
2023-04-04T01:31:15.558Z,99971.50
2023-04-04T01:34:24.871Z,99959.66
2023-04-04T01:37:05.863Z,99952.53
2023-04-04T01:40:39.946Z,99959.34
2023-04-04T01:43:20.213Z,99949.88
2023-04-04T01:46:00.836Z,99945.66
2023-04-04T01:48:39.078Z,99943.72
2023-04-04T01:51:24.110Z,99937.44
2023-04-04T01:54:09.325Z,99936.63
2023-04-04T01:57:01.871Z,99935.22
2023-04-04T01:59:45.988Z,99926.56
2023-04-04T02:02:21.234Z,99923.78
2023-04-04T02:05:10.690Z,99914.53
2023-04-04T02:07:57.802Z,99911.22
2023-04-04T02:10:51.139Z,99904.09
2023-04-04T02:13:37.316Z,99910.09
2023-04-04T02:16:21.535Z,99899.78
2023-04-04T02:19:04.785Z,99892.22
2023-04-04T02:21:57.490Z,99889.44
2023-04-04T02:24:43.221Z,99877.13
2023-04-04T02:27:23.543Z,99878.94
2023-04-04T02:30:10.319Z,99871.31
2023-04-04T02:32:48.686Z,99871.19
2023-04-04T02:35:36.703Z,99875.19
2023-04-04T02:38:20.333Z,99861.25
2023-04-04T02:41:09.202Z,99863.78
2023-04-04T02:43:59.629Z,99859.44
2023-04-04T02:46:38.918Z,99857.09
2023-04-04T02:49:22.860Z,99856.22
2023-04-04T02:52:06.367Z,99856.22
2023-04-04T02:54:50.302Z,99866.09
2023-04-04T02:57:40.827Z,99867.50
2023-04-04T03:00:24.099Z,99865.97
2023-04-04T03:02:59.057Z,99864.53
2023-04-04T03:05:49.615Z,99867.72
2023-04-04T03:08:41.329Z,99873.19
2023-04-04T03:11:24.012Z,99875.84
2023-04-04T03:14:11.661Z,99870.97
2023-04-04T03:17:00.670Z,99876.53
2023-04-04T03:19:39.842Z,99876.72
2023-04-04T03:22:28.623Z,99881.06
2023-04-04T03:25:07.951Z,99880.88
2023-04-04T03:27:57.242Z,99873.22
2023-04-04T03:30:43.014Z,99871.81
2023-04-04T03:33:34.278Z,99883.56
2023-04-04T03:36:22.903Z,99884.56
2023-04-04T03:39:06.647Z,99892.25
2023-04-04T03:41:48.209Z,99888.34
2023-04-04T03:44:36.955Z,99884.00
2023-04-04T03:47:31.389Z,99890.56
2023-04-04T03:50:19.903Z,99895.03
2023-04-04T03:53:08.427Z,99897.00
2023-04-04T03:55:49.910Z,99900.59
2023-04-04T03:58:35.821Z,99894.56
2023-04-04T04:01:18.330Z,99894.47
2023-04-04T04:04:01.289Z,99902.28
2023-04-04T04:06:37.544Z,99899.88
2023-04-04T04:09:29.799Z,99901.00
2023-04-04T04:12:12.386Z,99897.25
2023-04-04T04:14:58.477Z,99893.78
2023-04-04T04:17:48.494Z,99886.09
2023-04-04T04:20:37.527Z,99889.28
2023-04-04T04:23:28.257Z,99894.72
2023-04-04T04:26:24.405Z,99886.91
2023-04-04T04:29:10.431Z,99894.66
2023-04-04T04:31:48.210Z,99900.94
2023-04-04T04:34:40.383Z,99898.41
2023-04-04T04:37:26.914Z,99899.19
2023-04-04T04:40:17.086Z,99900.97
2023-04-04T04:43:06.283Z,99900.81
2023-04-04T04:45:44.087Z,99906.13
2023-04-04T04:48:30.226Z,99908.63
2023-04-04T04:51:16.480Z,99902.50
2023-04-04T04:53:59.783Z,99900.13
2023-04-04T04:56:43.535Z,99894.16
2023-04-04T04:59:28.465Z,99892.22
2023-04-04T05:02:24.394Z,99900.72
2023-04-04T05:05:13.620Z,99892.50
2023-04-04T05:08:03.807Z,99891.97
2023-04-04T05:10:47.110Z,99906.34
2023-04-04T05:13:27.644Z,99898.63
2023-04-04T05:16:15.678Z,99894.44
2023-04-04T05:18:54.243Z,99898.06
2023-04-04T05:21:36.694Z,99891.91
2023-04-04T05:24:17.644Z,99892.19
2023-04-04T05:26:58.998Z,99886.28
2023-04-04T05:29:48.319Z,99886.97
2023-04-04T05:32:39.677Z,99888.47
2023-04-04T05:35:28.086Z,99888.53
2023-04-04T05:38:14.319Z,99891.13
2023-04-04T05:41:03.942Z,99896.66
2023-04-04T05:43:46.772Z,99903.84
2023-04-04T05:46:38.324Z,99902.88
2023-04-04T05:49:34.217Z,99906.22
2023-04-04T05:52:18.799Z,99909.41
2023-04-04T05:55:04.105Z,99919.28
2023-04-04T05:57:57.717Z,99923.22
2023-04-04T06:00:54.067Z,99923.88
2023-04-04T06:03:42.491Z,99921.84
2023-04-04T06:06:25.208Z,99923.41
2023-04-04T06:09:22.809Z,99919.13
2023-04-04T06:12:07.224Z,99926.94
2023-04-04T06:14:53.776Z,99917.94
2023-04-04T06:17:37.183Z,99923.50
2023-04-04T06:20:27.348Z,99909.41
2023-04-04T06:23:05.196Z,99906.44
2023-04-04T06:25:52.816Z,99917.47
2023-04-04T06:28:39.164Z,99920.47
2023-04-04T06:31:15.774Z,99923.47
2023-04-04T06:34:01.713Z,99926.00
2023-04-04T06:36:43.372Z,99925.25
2023-04-04T06:39:27.356Z,99922.09
2023-04-04T06:42:13.953Z,99908.97
2023-04-04T06:45:01.123Z,99892.28
2023-04-04T06:47:51.047Z,99881.53
2023-04-04T06:50:32.153Z,99880.50
2023-04-04T06:53:16.933Z,99876.44
2023-04-04T06:56:03.231Z,99877.19
2023-04-04T06:58:41.543Z,99880.56
2023-04-04T07:01:28.042Z,99875.09
2023-04-04T07:04:12.148Z,99879.47
2023-04-04T07:07:01.499Z,99897.53
2023-04-04T07:09:45.346Z,99885.03
2023-04-04T07:12:21.960Z,99888.75
2023-04-04T07:15:04.796Z,99878.47
2023-04-04T07:17:41.159Z,99883.66
2023-04-04T07:20:25.908Z,99889.00
2023-04-04T07:23:12.321Z,99893.16
2023-04-04T07:25:52.609Z,99899.38
2023-04-04T07:28:27.015Z,99898.44
2023-04-04T07:31:11.416Z,99901.78
2023-04-04T07:33:58.048Z,99894.75
2023-04-04T07:36:41.434Z,99895.03
2023-04-04T07:39:24.296Z,99892.06
2023-04-04T07:42:05.171Z,99902.03
2023-04-04T07:44:40.399Z,99898.34
2023-04-04T07:47:22.880Z,99902.41
2023-04-04T07:50:03.277Z,99896.31
2023-04-04T07:52:45.937Z,99894.03
2023-04-04T07:55:34.910Z,99912.09
2023-04-04T07:58:14.110Z,99917.09
2023-04-04T08:00:57.373Z,99904.38
2023-04-04T08:03:44.443Z,99897.47
2023-04-04T08:06:25.380Z,99903.50
2023-04-04T08:09:06.178Z,99904.88
2023-04-04T08:11:50.083Z,99897.84
2023-04-04T08:14:33.112Z,99894.59
2023-04-04T08:17:08.318Z,99892.91
2023-04-04T08:19:59.990Z,99903.69
2023-04-04T08:22:54.892Z,99903.75
2023-04-04T08:26:11.865Z,99906.84
2023-04-04T08:28:55.803Z,99890.25
2023-04-04T08:31:42.972Z,99888.50
2023-04-04T08:34:26.956Z,99909.66
2023-04-04T08:37:14.798Z,99913.09
2023-04-04T08:40:02.493Z,99901.53
2023-04-04T08:42:48.958Z,99894.59
2023-04-04T08:45:30.837Z,99894.41
2023-04-04T08:48:21.386Z,99889.78
2023-04-04T08:51:12.296Z,99887.38
2023-04-04T08:53:51.909Z,99884.03
2023-04-04T08:56:35.384Z,99878.59
2023-04-04T08:59:16.666Z,99877.34
2023-04-04T09:02:25.584Z,99874.72
2023-04-04T09:05:09.803Z,99867.38
2023-04-04T09:07:48.952Z,99862.56
2023-04-04T09:10:32.071Z,99856.38
2023-04-04T09:13:19.461Z,99866.59
2023-04-04T09:16:02.125Z,99862.19
2023-04-04T09:18:48.494Z,99872.75
2023-04-04T09:21:42.178Z,99864.34
2023-04-04T09:24:25.741Z,99866.03
2023-04-04T09:27:06.250Z,99870.81
2023-04-04T09:29:46.146Z,99862.31
2023-04-04T09:32:26.528Z,99866.50
2023-04-04T09:35:13.107Z,99859.94
2023-04-04T09:37:59.293Z,99849.88
2023-04-04T09:40:43.945Z,99852.41
2023-04-04T09:43:22.210Z,99855.09
2023-04-04T09:46:04.168Z,99862.25
2023-04-04T09:48:53.674Z,99843.13
2023-04-04T09:51:42.700Z,99851.66
2023-04-04T09:54:29.365Z,99849.94
2023-04-04T09:57:15.780Z,99849.28
2023-04-04T10:00:21.728Z,99841.34
2023-04-04T10:02:59.939Z,99830.78
2023-04-04T10:05:48.608Z,99829.72
2023-04-04T10:08:29.607Z,99829.63
2023-04-04T10:11:12.372Z,99836.84
2023-04-04T10:13:56.596Z,99844.25
2023-04-04T10:16:43.139Z,99835.59
2023-04-04T10:19:27.044Z,99835.53
2023-04-04T10:22:04.480Z,99836.53
2023-04-04T10:24:56.746Z,99836.56
2023-04-04T10:27:38.827Z,99831.84
2023-04-04T10:30:24.200Z,99825.47
2023-04-04T10:33:04.717Z,99809.50
2023-04-04T10:35:54.192Z,99817.41
2023-04-04T10:38:31.792Z,99817.19
2023-04-04T10:41:13.933Z,99825.22
2023-04-04T10:44:03.628Z,99818.97
2023-04-04T10:46:51.820Z,99807.03
2023-04-04T10:49:35.756Z,99799.06
2023-04-04T10:52:17.459Z,99810.00
2023-04-04T10:55:08.470Z,99825.69
2023-04-04T10:57:55.440Z,99819.66
2023-04-04T11:00:35.867Z,99812.78
2023-04-04T11:03:06.349Z,99814.28
2023-04-04T11:05:47.142Z,99806.09
2023-04-04T11:08:33.104Z,99808.38
2023-04-04T11:11:22.545Z,99804.59
2023-04-04T11:14:13.384Z,99815.50
2023-04-04T11:17:00.817Z,99799.28
2023-04-04T11:20:07.182Z,99799.66
2023-04-04T11:22:46.303Z,99794.25
2023-04-04T11:25:32.846Z,99796.19
2023-04-04T11:28:31.643Z,99805.00
2023-04-04T11:31:54.271Z,99797.16
2023-04-04T11:34:39.457Z,99794.91
2023-04-04T11:37:24.340Z,99787.16
2023-04-04T11:40:17.898Z,99785.06
2023-04-04T11:43:09.973Z,99788.44
2023-04-04T11:46:00.866Z,99788.50
2023-04-04T11:48:46.236Z,99781.84
2023-04-04T11:51:33.717Z,99785.25
2023-04-04T11:54:25.588Z,99774.28
2023-04-04T11:57:09.117Z,99775.97
2023-04-04T12:00:01.974Z,99771.34
2023-04-04T12:02:50.516Z,99764.63
2023-04-04T12:05:29.428Z,99769.16
2023-04-04T12:08:09.178Z,99763.63
2023-04-04T12:10:51.574Z,99761.13
2023-04-04T12:13:45.686Z,99748.50
2023-04-04T12:16:35.171Z,99756.50
2023-04-04T12:19:19.214Z,99753.50
2023-04-04T12:22:08.686Z,99741.22
2023-04-04T12:24:49.058Z,99744.81
2023-04-04T12:27:39.041Z,99739.25
2023-04-04T12:30:25.873Z,99735.72
2023-04-04T12:33:01.662Z,99740.38
2023-04-04T12:35:40.407Z,99735.63
2023-04-04T12:38:23.079Z,99730.88
2023-04-04T12:41:06.993Z,99734.13
2023-04-04T12:43:49.779Z,99735.31
2023-04-04T12:46:31.858Z,99728.28
2023-04-04T12:49:22.212Z,99718.91
2023-04-04T12:52:05.450Z,99725.84
2023-04-04T12:54:56.189Z,99721.50
2023-04-04T12:57:46.228Z,99719.41
2023-04-04T13:00:27.987Z,99715.94
2023-04-04T13:03:11.904Z,99722.88
2023-04-04T13:05:47.119Z,99713.06
2023-04-04T13:08:32.851Z,99718.56
2023-04-04T13:11:19.830Z,99712.44
2023-04-04T13:14:13.336Z,99706.38
2023-04-04T13:17:15.567Z,99704.66
2023-04-04T13:20:04.185Z,99707.41
2023-04-04T13:22:53.533Z,99705.28
2023-04-04T13:25:38.898Z,99705.41
2023-04-04T13:28:20.340Z,99707.44
2023-04-04T13:30:55.699Z,99716.69
2023-04-04T13:33:42.269Z,99704.41
2023-04-04T13:36:18.389Z,99707.78
2023-04-04T13:39:08.062Z,99706.97
2023-04-04T13:42:00.301Z,99704.84
2023-04-04T13:44:38.169Z,99701.69
2023-04-04T13:47:24.924Z,99709.91
2023-04-04T13:50:07.184Z,99707.16
2023-04-04T13:52:45.297Z,99708.78
2023-04-04T13:55:33.936Z,99709.53
2023-04-04T13:58:16.801Z,99703.38
2023-04-04T14:01:07.478Z,99710.97
2023-04-04T14:03:51.351Z,99707.97
2023-04-04T14:06:34.265Z,99691.53
2023-04-04T14:09:10.972Z,99706.09
2023-04-04T14:12:00.772Z,99704.78
2023-04-04T14:14:47.769Z,99707.28
2023-04-04T14:17:25.263Z,99708.47
2023-04-04T14:20:02.842Z,99705.97
2023-04-04T14:22:43.689Z,99710.72
2023-04-04T14:25:29.535Z,99708.31
2023-04-04T14:28:13.450Z,99712.03
2023-04-04T14:31:01.217Z,99711.09
2023-04-04T14:33:44.656Z,99710.81
2023-04-04T14:36:30.705Z,99710.50
2023-04-04T14:39:14.212Z,99723.13
2023-04-04T14:42:00.805Z,99725.13
2023-04-04T14:44:44.521Z,99722.41
2023-04-04T14:47:33.849Z,99723.75
2023-04-04T14:50:19.765Z,99716.47
2023-04-04T14:53:05.012Z,99720.03
2023-04-04T14:55:53.278Z,99724.88
2023-04-04T14:58:39.544Z,99718.19
2023-04-04T15:01:23.037Z,99719.91
2023-04-04T15:04:11.991Z,99721.25
2023-04-04T15:06:54.255Z,99724.91
2023-04-04T15:09:38.360Z,99729.59
2023-04-04T15:12:22.283Z,99719.88
2023-04-04T15:15:13.366Z,99722.72
2023-04-04T15:18:05.170Z,99724.28
2023-04-04T15:20:51.610Z,99724.88
2023-04-04T15:23:32.477Z,99722.56
2023-04-04T15:26:07.097Z,99722.03
2023-04-04T15:28:47.726Z,99734.09
2023-04-04T15:31:28.231Z,99730.06
2023-04-04T15:34:21.918Z,99731.66
2023-04-04T15:37:06.637Z,99739.03
2023-04-04T15:39:53.990Z,99741.81
2023-04-04T15:42:31.858Z,99742.19
2023-04-04T15:45:19.483Z,99748.69
2023-04-04T15:48:04.839Z,99743.56
2023-04-04T15:50:51.808Z,99746.34
2023-04-04T15:53:38.787Z,99755.50
2023-04-04T15:56:24.776Z,99755.44
2023-04-04T15:59:10.963Z,99752.81
2023-04-04T16:01:52.894Z,99759.06
2023-04-04T16:04:28.797Z,99759.06
2023-04-04T16:07:06.974Z,99757.78
2023-04-04T16:09:44.328Z,99770.56
2023-04-04T16:12:27.982Z,99773.94
2023-04-04T16:15:12.611Z,99781.75
2023-04-04T16:17:56.211Z,99783.28
2023-04-04T16:20:42.702Z,99786.59
2023-04-04T16:23:26.247Z,99787.91
2023-04-04T16:26:12.204Z,99786.44
2023-04-04T16:28:50.374Z,99797.63
2023-04-04T16:31:49.890Z,99795.38
2023-04-04T16:34:31.792Z,99807.28
2023-04-04T16:37:19.276Z,99809.38
2023-04-04T16:40:01.273Z,99811.59
2023-04-04T16:42:42.158Z,99814.84
2023-04-04T16:45:20.154Z,99818.25
2023-04-04T16:48:07.488Z,99826.72
2023-04-04T16:50:48.094Z,99834.31
2023-04-04T16:53:26.572Z,99828.47
2023-04-04T16:56:06.785Z,99833.13
2023-04-04T16:58:50.667Z,99837.88
2023-04-04T17:01:31.763Z,99845.09
2023-04-04T17:04:18.453Z,99844.72
2023-04-04T17:06:54.726Z,99854.75
2023-04-04T17:09:38.745Z,99848.53
2023-04-04T17:12:20.706Z,99856.94
2023-04-04T17:14:55.216Z,99859.31
2023-04-04T17:17:36.084Z,99870.97
2023-04-04T17:20:20.184Z,99876.63
2023-04-04T17:22:58.574Z,99880.25
2023-04-04T17:25:42.231Z,99880.28
2023-04-04T17:28:24.902Z,99883.78
2023-04-04T17:31:05.311Z,99884.63
2023-04-04T17:33:54.066Z,99890.13
2023-04-04T17:36:38.448Z,99894.34
2023-04-04T17:39:17.863Z,99891.34
2023-04-04T17:42:03.911Z,99897.25
2023-04-04T17:44:44.395Z,99900.28
2023-04-04T17:47:19.662Z,99908.16
2023-04-04T17:49:59.729Z,99908.97
2023-04-04T17:52:45.820Z,99916.69
2023-04-04T17:55:34.496Z,99918.56
2023-04-04T17:58:12.173Z,99926.59
2023-04-04T18:00:54.822Z,99930.13
2023-04-04T18:03:36.781Z,99933.31
2023-04-04T18:06:11.760Z,99939.47
2023-04-04T18:08:50.612Z,99937.16
2023-04-04T18:11:37.082Z,99945.16
2023-04-04T18:14:17.819Z,99951.03
2023-04-04T18:17:04.658Z,99955.38
2023-04-04T18:19:49.591Z,99949.19
2023-04-04T18:22:25.070Z,99954.53
2023-04-04T18:25:21.685Z,99957.19
2023-04-04T18:28:13.089Z,99960.88
2023-04-04T18:30:53.689Z,99965.88
2023-04-04T18:33:32.950Z,99965.69
2023-04-04T18:36:17.050Z,99965.69
2023-04-04T18:39:03.121Z,99978.69
2023-04-04T18:41:43.000Z,99975.16
2023-04-04T18:44:23.821Z,99981.34
2023-04-04T18:47:09.937Z,99972.13
2023-04-04T18:49:48.187Z,99987.78
2023-04-04T18:52:34.647Z,99989.63
2023-04-04T18:55:21.568Z,99990.94
2023-04-04T18:58:04.949Z,99997.75
2023-04-04T19:00:48.266Z,100006.44
2023-04-04T19:07:02.702Z,100010.56
2023-04-04T19:09:46.234Z,100011.38
2023-04-04T19:12:29.244Z,100016.16
2023-04-04T19:15:07.853Z,100014.66
2023-04-04T19:17:55.150Z,100015.78
2023-04-04T19:20:42.156Z,100021.09
2023-04-04T19:23:26.259Z,100036.19
2023-04-04T19:26:10.573Z,100037.81
2023-04-04T19:28:49.125Z,100041.03
2023-04-04T19:31:36.132Z,100036.56
2023-04-04T19:34:17.840Z,100034.00
2023-04-04T19:37:01.182Z,100038.94
2023-04-04T19:39:50.530Z,100041.16
2023-04-04T19:42:40.087Z,100045.22
2023-04-04T19:45:20.879Z,100049.09
2023-04-04T19:47:57.244Z,100056.31
2023-04-04T19:50:47.662Z,100054.53
2023-04-04T19:53:34.890Z,100049.91
2023-04-04T19:56:17.177Z,100049.03
2023-04-04T19:59:10.878Z,100051.44
2023-04-04T20:02:00.855Z,100051.22
2023-04-04T20:04:42.162Z,100048.94
2023-04-04T20:07:25.097Z,100045.28
2023-04-04T20:10:17.772Z,100046.19
2023-04-04T20:13:08.595Z,100052.38
2023-04-04T20:16:02.017Z,100046.41
2023-04-04T20:18:47.588Z,100042.25
2023-04-04T20:21:29.747Z,100049.78
2023-04-04T20:24:14.093Z,100048.47
2023-04-04T20:27:02.815Z,100052.56
2023-04-04T20:29:44.555Z,100043.69
2023-04-04T20:32:31.083Z,100049.84
2023-04-04T20:35:17.231Z,100060.50
2023-04-04T20:37:58.333Z,100050.47
2023-04-04T20:40:47.765Z,100053.78
2023-04-04T20:43:39.323Z,100052.63
2023-04-04T20:46:26.687Z,100054.72
2023-04-04T20:49:06.888Z,100052.13
2023-04-04T20:51:48.027Z,100064.00
2023-04-04T20:54:32.213Z,100058.84
2023-04-04T20:57:14.475Z,100055.63
2023-04-04T20:59:56.754Z,100064.63
2023-04-04T21:02:45.087Z,100073.56
2023-04-04T21:05:39.503Z,100074.88
2023-04-04T21:08:37.189Z,100076.47
2023-04-04T21:11:19.287Z,100081.94
2023-04-04T21:14:15.876Z,100077.59
2023-04-04T21:17:05.336Z,100080.91
2023-04-04T21:19:52.737Z,100078.06
2023-04-04T21:22:35.725Z,100072.41
2023-04-04T21:25:43.596Z,100074.41
2023-04-04T21:28:24.317Z,100084.22
2023-04-04T21:31:08.702Z,100071.81
2023-04-04T21:33:47.351Z,100066.38
2023-04-04T21:36:37.514Z,100065.56
2023-04-04T21:39:39.148Z,100070.06
2023-04-04T21:42:19.886Z,100071.75
2023-04-04T21:45:05.566Z,100071.75
2023-04-04T21:47:49.073Z,100064.63
2023-04-04T21:50:30.879Z,100069.53
2023-04-04T21:53:08.801Z,100060.84
2023-04-04T21:55:48.978Z,100060.72
2023-04-04T21:58:36.288Z,100065.34
2023-04-04T22:01:16.844Z,100060.84
2023-04-04T22:03:54.911Z,100061.72
2023-04-04T22:06:44.077Z,100056.00
2023-04-04T22:09:25.850Z,100057.09
2023-04-04T22:12:16.115Z,100047.47
2023-04-04T22:15:02.429Z,100051.66
2023-04-04T22:17:40.252Z,100058.34
2023-04-04T22:20:23.959Z,100049.13
2023-04-04T22:23:07.705Z,100049.94
2023-04-04T22:25:51.398Z,100063.34
2023-04-04T22:28:34.074Z,100055.25
2023-04-04T22:31:11.771Z,100058.63
2023-04-04T22:33:53.800Z,100062.25
2023-04-04T22:36:40.298Z,100062.53
2023-04-04T22:39:26.101Z,100072.03
2023-04-04T22:42:06.828Z,100068.66
2023-04-04T22:44:50.059Z,100068.13
2023-04-04T22:47:29.547Z,100071.50
2023-04-04T22:50:11.471Z,100065.06
2023-04-04T22:52:46.877Z,100058.47
2023-04-04T22:55:36.328Z,100061.53
2023-04-04T22:58:29.242Z,100060.72
2023-04-04T23:01:12.722Z,100057.19
2023-04-04T23:03:48.800Z,100056.63
2023-04-04T23:06:29.213Z,100060.00
2023-04-04T23:09:15.381Z,100050.38
2023-04-04T23:11:53.767Z,100056.63
2023-04-04T23:14:39.095Z,100056.09
2023-04-04T23:17:34.761Z,100059.69
2023-04-04T23:20:15.330Z,100063.16
2023-04-04T23:23:04.805Z,100054.63
2023-04-04T23:25:44.760Z,100050.53
2023-04-04T23:28:28.753Z,100054.97
2023-04-04T23:31:14.966Z,100054.53
2023-04-04T23:33:50.361Z,100054.81
2023-04-04T23:36:35.289Z,100049.13
2023-04-04T23:39:25.957Z,100050.78
2023-04-04T23:42:04.524Z,100051.19
2023-04-04T23:44:51.440Z,100056.47
2023-04-04T23:47:28.229Z,100053.03
2023-04-04T23:50:08.891Z,100051.53
2023-04-04T23:52:52.921Z,100042.59
2023-04-04T23:55:35.860Z,100050.97
2023-04-04T23:58:19.198Z,100048.16
